createdAt,value
2018-06-19T00:01:54.865Z,2.60
2018-06-19T00:04:23.461Z,2.80
2018-06-19T00:06:52.082Z,2.50
2018-06-19T00:09:20.685Z,2.70
2018-06-19T00:11:49.317Z,2.70
2018-06-19T00:14:17.894Z,2.70
2018-06-19T00:16:46.491Z,3.00
2018-06-19T00:19:15.146Z,2.90
2018-06-19T00:21:47.894Z,2.70
2018-06-19T00:24:16.633Z,2.90
2018-06-19T00:26:45.214Z,2.87
2018-06-19T00:29:13.861Z,3.10
2018-06-19T00:31:42.487Z,3.07
2018-06-19T00:34:11.218Z,2.93
2018-06-19T00:36:39.856Z,3.00
2018-06-19T00:39:10.182Z,3.13
2018-06-19T00:41:38.877Z,3.00
2018-06-19T00:44:08.186Z,3.33
2018-06-19T00:46:38.710Z,3.30
2018-06-19T00:49:07.363Z,3.67
2018-06-19T00:51:36.003Z,3.50
2018-06-19T00:54:04.599Z,3.73
2018-06-19T00:56:57.049Z,3.90
2018-06-19T00:59:25.814Z,3.53
2018-06-19T01:01:55.233Z,3.50
2018-06-19T01:04:23.864Z,3.67
2018-06-19T01:06:52.563Z,3.63
2018-06-19T01:09:21.191Z,3.60
2018-06-19T01:11:49.845Z,3.80
2018-06-19T01:14:18.477Z,3.20
2018-06-19T01:16:47.109Z,3.80
2018-06-19T01:19:15.708Z,3.37
2018-06-19T01:21:44.298Z,3.80
2018-06-19T01:24:13.161Z,3.97
2018-06-19T01:26:41.749Z,3.80
2018-06-19T01:29:10.425Z,3.87
2018-06-19T01:31:39.026Z,3.60
2018-06-19T01:34:08.627Z,3.70
2018-06-19T01:36:37.354Z,4.03
2018-06-19T01:39:08.818Z,3.43
2018-06-19T01:41:37.526Z,3.70
2018-06-19T01:44:06.211Z,3.87
2018-06-19T01:46:34.821Z,3.67
2018-06-19T01:49:03.422Z,3.37
2018-06-19T01:51:32.063Z,3.80
2018-06-19T01:54:00.664Z,3.33
2018-06-19T01:56:29.659Z,3.43
2018-06-19T01:58:58.265Z,3.27
2018-06-19T02:01:26.897Z,3.20
2018-06-19T02:03:55.498Z,3.47
2018-06-19T02:06:24.129Z,3.40
2018-06-19T02:08:53.253Z,3.40
2018-06-19T02:11:21.857Z,3.17
2018-06-19T02:13:50.463Z,3.17
2018-06-19T02:16:19.080Z,2.73
2018-06-19T02:18:47.736Z,3.00
2018-06-19T02:21:16.370Z,3.37
2018-06-19T02:23:44.973Z,3.37
2018-06-19T02:26:13.554Z,3.10
2018-06-19T02:28:42.166Z,2.67
2018-06-19T02:31:10.765Z,3.43
2018-06-19T02:33:39.446Z,3.37
2018-06-19T02:36:08.206Z,3.33
2018-06-19T02:38:36.890Z,3.20
2018-06-19T02:41:05.663Z,3.30
2018-06-19T02:43:34.255Z,3.50
2018-06-19T02:46:02.898Z,2.90
2018-06-19T02:48:31.516Z,2.83
2018-06-19T02:50:59.806Z,3.17
2018-06-19T02:53:28.381Z,3.03
2018-06-19T02:55:57.006Z,3.07
2018-06-19T02:58:25.610Z,3.83
2018-06-19T03:00:54.253Z,3.20
2018-06-19T03:03:23.012Z,2.77
2018-06-19T03:05:52.985Z,3.00
2018-06-19T03:08:21.598Z,3.07
2018-06-19T03:10:50.206Z,3.30
2018-06-19T03:13:18.871Z,3.50
2018-06-19T03:15:47.434Z,3.10
2018-06-19T03:18:16.065Z,3.47
2018-06-19T03:20:45.073Z,3.00
2018-06-19T03:23:13.678Z,2.80
2018-06-19T03:25:42.281Z,2.60
2018-06-19T03:28:10.872Z,3.20
2018-06-19T03:30:39.597Z,2.97
2018-06-19T03:33:08.318Z,3.13
2018-06-19T03:35:37.050Z,3.10
2018-06-19T03:38:05.724Z,2.87
2018-06-19T03:40:34.402Z,3.37
2018-06-19T03:43:03.365Z,2.90
2018-06-19T03:45:32.449Z,3.23
2018-06-19T03:48:01.157Z,3.00
2018-06-19T03:50:29.741Z,2.90
2018-06-19T03:52:58.336Z,3.40
2018-06-19T03:55:27.345Z,2.93
2018-06-19T03:57:55.954Z,3.07
2018-06-19T04:00:24.579Z,3.00
2018-06-19T04:02:53.301Z,3.00
2018-06-19T04:05:21.876Z,3.63
2018-06-19T04:07:50.474Z,3.20
2018-06-19T04:10:19.112Z,3.00
2018-06-19T04:12:47.718Z,3.20
2018-06-19T04:15:16.320Z,2.80
2018-06-19T04:17:44.925Z,2.77
2018-06-19T04:20:13.534Z,3.23
2018-06-19T04:22:42.120Z,3.23
2018-06-19T04:25:10.762Z,3.13
2018-06-19T04:27:39.382Z,3.10
2018-06-19T04:30:08.041Z,3.33
2018-06-19T04:32:36.689Z,3.00
2018-06-19T04:35:05.422Z,3.17
2018-06-19T04:37:34.021Z,3.73
2018-06-19T04:40:02.613Z,3.37
2018-06-19T04:42:31.251Z,2.90
2018-06-19T04:44:59.847Z,3.10
2018-06-19T04:47:28.458Z,3.40
2018-06-19T04:49:57.050Z,3.50
2018-06-19T04:52:26.593Z,3.27
2018-06-19T04:54:55.293Z,3.23
2018-06-19T04:57:24.093Z,3.17
2018-06-19T04:59:52.789Z,3.20
2018-06-19T05:02:21.390Z,2.80
2018-06-19T05:04:50.012Z,3.10
2018-06-19T05:07:18.610Z,3.43
2018-06-19T05:09:47.201Z,3.10
2018-06-19T05:12:15.809Z,3.50
2018-06-19T05:14:44.466Z,3.40
2018-06-19T05:17:13.097Z,3.03
2018-06-19T05:19:41.674Z,3.37
2018-06-19T05:22:10.307Z,3.57
2018-06-19T05:24:38.960Z,3.77
2018-06-19T05:27:07.603Z,3.47
2018-06-19T05:29:36.227Z,3.53
2018-06-19T05:32:04.815Z,4.17
2018-06-19T05:34:33.451Z,3.83
2018-06-19T05:37:02.071Z,3.90
2018-06-19T05:39:30.641Z,3.87
2018-06-19T05:41:59.306Z,3.60
2018-06-19T05:44:27.879Z,3.77
2018-06-19T05:46:56.492Z,3.83
2018-06-19T05:49:25.105Z,3.67
2018-06-19T05:51:53.718Z,4.17
2018-06-19T05:54:22.349Z,3.87
2018-06-19T05:56:50.955Z,3.80
2018-06-19T05:59:19.581Z,4.00
2018-06-19T06:01:47.846Z,3.97
2018-06-19T06:04:16.445Z,4.17
2018-06-19T06:06:45.042Z,4.30
2018-06-19T06:09:13.621Z,4.67
2018-06-19T06:11:42.227Z,3.83
2018-06-19T06:14:10.889Z,3.90
2018-06-19T06:16:40.047Z,4.50
2018-06-19T06:19:08.669Z,4.23
2018-06-19T06:21:37.313Z,4.53
2018-06-19T06:24:05.957Z,4.33
2018-06-19T06:26:34.580Z,4.50
2018-06-19T06:29:03.274Z,4.17
2018-06-19T06:31:31.897Z,4.37
2018-06-19T06:34:00.629Z,4.60
2018-06-19T06:36:29.213Z,5.17
2018-06-19T06:38:57.821Z,5.07
2018-06-19T06:41:26.409Z,4.83
2018-06-19T06:43:55.118Z,5.27
2018-06-19T06:46:23.792Z,4.80
2018-06-19T06:48:52.390Z,4.90
2018-06-19T06:51:20.976Z,5.07
2018-06-19T06:53:49.562Z,4.57
2018-06-19T06:56:18.181Z,4.17
2018-06-19T06:58:46.781Z,4.87
2018-06-19T07:01:15.401Z,4.40
2018-06-19T07:03:44.007Z,4.20
2018-06-19T07:06:12.590Z,5.00
2018-06-19T07:08:41.244Z,4.67
2018-06-19T07:11:09.861Z,4.27
2018-06-19T07:13:38.484Z,5.23
2018-06-19T07:16:07.115Z,5.30
2018-06-19T07:18:35.881Z,4.87
2018-06-19T07:21:04.486Z,5.57
2018-06-19T07:23:33.077Z,6.00
2018-06-19T07:26:01.780Z,5.40
2018-06-19T07:28:30.291Z,5.57
2018-06-19T07:30:58.877Z,5.50
2018-06-19T07:33:27.485Z,5.93
2018-06-19T07:35:56.074Z,7.20
2018-06-19T07:38:25.038Z,6.47
2018-06-19T07:40:53.633Z,6.20
2018-06-19T07:43:22.226Z,7.00
2018-06-19T07:45:50.844Z,6.80
2018-06-19T07:48:19.439Z,6.70
2018-06-19T07:50:48.025Z,6.27
2018-06-19T07:53:16.627Z,6.70
2018-06-19T07:55:45.205Z,6.23
2018-06-19T07:58:13.817Z,6.90
2018-06-19T08:00:43.227Z,6.50
2018-06-19T08:03:11.833Z,6.37
2018-06-19T08:05:40.454Z,6.70
2018-06-19T08:08:09.047Z,7.07
2018-06-19T08:10:37.682Z,7.17
2018-06-19T08:13:06.345Z,7.03
2018-06-19T08:15:34.938Z,6.70
2018-06-19T08:18:03.563Z,6.97
2018-06-19T08:20:32.150Z,6.93
2018-06-19T08:23:00.769Z,6.83
2018-06-19T08:25:29.392Z,6.87
2018-06-19T08:27:57.970Z,6.67
2018-06-19T08:30:26.591Z,6.83
2018-06-19T08:32:55.243Z,6.83
2018-06-19T08:35:23.892Z,6.73
2018-06-19T08:37:52.481Z,6.87
2018-06-19T08:40:21.084Z,6.73
2018-06-19T08:42:49.684Z,7.03
2018-06-19T08:45:18.283Z,7.30
2018-06-19T08:47:46.886Z,6.03
2018-06-19T08:50:15.454Z,7.43
2018-06-19T08:52:44.097Z,8.03
2018-06-19T08:55:12.738Z,7.80
2018-06-19T08:57:41.325Z,7.43
2018-06-19T09:00:10.042Z,7.17
2018-06-19T09:02:38.649Z,7.27
2018-06-19T09:05:07.263Z,7.43
2018-06-19T09:07:36.269Z,7.47
2018-06-19T09:10:05.089Z,7.80
2018-06-19T09:12:33.709Z,7.90
2018-06-19T09:15:02.337Z,8.17
2018-06-19T09:17:30.933Z,8.23
2018-06-19T09:19:59.599Z,7.47
2018-06-19T09:22:28.129Z,8.00
2018-06-19T09:24:56.746Z,7.47
2018-06-19T09:27:25.321Z,8.40
2018-06-19T09:29:53.920Z,8.20
2018-06-19T09:32:22.569Z,8.63
2018-06-19T09:34:51.173Z,7.87
2018-06-19T09:37:19.781Z,7.80
2018-06-19T09:39:48.575Z,8.37
2018-06-19T09:42:17.157Z,8.50
2018-06-19T09:44:45.766Z,8.30
2018-06-19T09:47:14.357Z,8.50
2018-06-19T09:49:43.006Z,8.60
2018-06-19T09:52:11.626Z,8.60
2018-06-19T09:54:40.333Z,8.47
2018-06-19T09:57:08.999Z,7.93
2018-06-19T09:59:37.760Z,9.07
2018-06-19T10:02:06.559Z,9.30
2018-06-19T10:04:35.198Z,8.53
2018-06-19T10:07:03.957Z,9.40
2018-06-19T10:09:32.666Z,9.07
2018-06-19T10:12:01.355Z,8.57
2018-06-19T10:14:29.926Z,8.63
2018-06-19T10:16:58.541Z,9.00
2018-06-19T10:19:27.201Z,8.37
2018-06-19T10:21:55.790Z,9.50
2018-06-19T10:24:24.581Z,8.80
2018-06-19T10:26:53.170Z,9.77
2018-06-19T10:29:21.817Z,9.77
2018-06-19T10:31:50.130Z,8.97
2018-06-19T10:34:18.749Z,9.37
2018-06-19T10:36:47.380Z,9.33
2018-06-19T10:39:15.975Z,9.23
2018-06-19T10:41:44.821Z,9.37
2018-06-19T10:44:13.425Z,9.67
2018-06-19T10:46:42.027Z,8.77
2018-06-19T10:49:10.657Z,9.03
2018-06-19T10:51:39.397Z,8.97
2018-06-19T10:54:08.061Z,9.87
2018-06-19T10:56:36.698Z,10.00
2018-06-19T10:59:05.356Z,9.73
2018-06-19T11:01:33.970Z,9.47
2018-06-19T11:04:02.545Z,9.63
2018-06-19T11:06:31.169Z,8.70
2018-06-19T11:08:59.783Z,8.43
2018-06-19T11:11:28.450Z,9.70
2018-06-19T11:13:57.090Z,9.60
2018-06-19T11:16:25.705Z,8.27
2018-06-19T11:18:54.564Z,8.17
2018-06-19T11:21:23.329Z,8.73
2018-06-19T11:23:51.961Z,8.27
2018-06-19T11:26:20.553Z,7.50
2018-06-19T11:28:49.134Z,7.67
2018-06-19T11:31:17.730Z,8.23
2018-06-19T11:33:46.366Z,7.40
2018-06-19T11:36:15.020Z,7.63
2018-06-19T11:38:43.609Z,7.77
2018-06-19T11:41:12.189Z,8.50
2018-06-19T11:43:40.809Z,7.97
2018-06-19T11:46:09.474Z,7.70
2018-06-19T11:48:38.259Z,7.97
2018-06-19T11:51:07.191Z,8.77
2018-06-19T11:53:35.810Z,8.93
2018-06-19T11:56:04.398Z,8.00
2018-06-19T11:58:33.022Z,8.20
2018-06-19T12:01:01.679Z,7.17
2018-06-19T12:03:30.281Z,7.40
2018-06-19T12:05:58.929Z,7.27
2018-06-19T12:08:27.509Z,8.00
2018-06-19T12:10:56.150Z,8.33
2018-06-19T12:13:24.781Z,7.67
2018-06-19T12:15:53.365Z,7.63
2018-06-19T12:18:21.993Z,8.30
2018-06-19T12:20:50.617Z,6.83
2018-06-19T12:23:19.288Z,6.43
2018-06-19T12:25:47.865Z,6.60
2018-06-19T12:28:16.521Z,6.87
2018-06-19T12:30:45.094Z,6.60
2018-06-19T12:33:13.666Z,6.03
2018-06-19T12:35:42.268Z,6.37
2018-06-19T12:38:10.847Z,6.37
2018-06-19T12:40:39.473Z,6.43
2018-06-19T12:43:08.137Z,6.07
2018-06-19T12:45:36.784Z,6.80
2018-06-19T12:48:05.609Z,7.77
2018-06-19T12:50:45.344Z,7.20
2018-06-19T12:53:25.179Z,7.03
2018-06-19T12:56:04.691Z,7.53
2018-06-19T12:58:33.304Z,7.33
2018-06-19T13:01:01.911Z,8.67
2018-06-19T13:03:41.633Z,8.53
2018-06-19T13:06:21.404Z,7.60
2018-06-19T13:08:50.005Z,6.90
2018-06-19T13:11:18.622Z,6.70
2018-06-19T13:13:58.401Z,5.97
2018-06-19T13:16:38.022Z,5.53
2018-06-19T13:19:17.650Z,5.57
2018-06-19T13:21:46.282Z,6.07
2018-06-19T13:24:14.867Z,6.20
2018-06-19T13:26:43.481Z,5.83
2018-06-19T13:29:52.709Z,6.93
2018-06-19T13:32:21.768Z,6.10
2018-06-19T13:34:50.382Z,5.20
2018-06-19T13:37:19.047Z,5.50
2018-06-19T13:39:52.120Z,5.87
2018-06-19T13:44:33.945Z,5.53
2018-06-19T13:47:02.537Z,5.20
2018-06-19T13:49:31.213Z,5.23
2018-06-19T13:51:59.790Z,6.00
2018-06-19T13:54:28.414Z,5.40
2018-06-19T13:57:35.547Z,5.13
2018-06-19T14:00:07.305Z,5.20
2018-06-19T14:02:35.973Z,5.83
2018-06-19T14:05:05.600Z,5.23
2018-06-19T14:07:39.698Z,5.47
2018-06-19T14:10:23.078Z,4.57
2018-06-19T14:12:53.089Z,5.33
2018-06-19T14:15:22.512Z,4.93
2018-06-19T14:17:51.118Z,4.17
2018-06-19T14:20:19.767Z,4.30
2018-06-19T14:22:48.407Z,4.50
2018-06-19T14:25:17.723Z,4.20
2018-06-19T14:27:46.353Z,4.47
2018-06-19T14:30:14.961Z,4.67
2018-06-19T14:32:45.079Z,4.37
2018-06-19T14:35:13.869Z,3.80
2018-06-19T14:37:44.091Z,3.93
2018-06-19T14:40:13.058Z,4.07
2018-06-19T14:42:41.702Z,3.90
2018-06-19T14:45:11.030Z,3.97
2018-06-19T14:47:39.905Z,3.93
2018-06-19T14:50:08.684Z,4.60
2018-06-19T14:52:37.994Z,4.20
2018-06-19T14:55:09.322Z,4.13
2018-06-19T14:57:38.182Z,3.67
2018-06-19T15:00:10.168Z,4.00
2018-06-19T15:02:38.989Z,3.90
2018-06-19T15:05:07.978Z,4.13
2018-06-19T15:07:44.238Z,3.53
2018-06-19T15:10:12.877Z,4.53
2018-06-19T15:12:41.482Z,3.87
2018-06-19T15:15:10.100Z,3.90
2018-06-19T15:17:38.770Z,3.93
2018-06-19T15:20:07.401Z,3.70
2018-06-19T15:22:37.841Z,3.20
2018-06-19T15:25:06.523Z,3.40
2018-06-19T15:27:37.146Z,3.47
2018-06-19T15:30:05.949Z,3.50
2018-06-19T15:32:34.585Z,3.23
2018-06-19T15:35:02.828Z,3.47
2018-06-19T15:37:31.425Z,3.57
2018-06-19T15:40:02.070Z,3.03
2018-06-19T15:42:30.729Z,3.87
2018-06-19T15:44:59.338Z,3.67
2018-06-19T15:47:27.933Z,3.53
2018-06-19T15:49:56.611Z,3.80
2018-06-19T15:52:25.241Z,3.50
2018-06-19T15:54:53.866Z,3.40
2018-06-19T15:57:22.512Z,3.37
2018-06-19T15:59:51.130Z,3.63
2018-06-19T16:02:19.710Z,4.07
2018-06-19T16:04:48.360Z,3.93
2018-06-19T16:07:16.967Z,3.83
2018-06-19T16:09:45.571Z,3.63
2018-06-19T16:12:14.145Z,3.80
2018-06-19T16:14:42.802Z,3.63
2018-06-19T16:17:11.437Z,3.50
2018-06-19T16:19:40.090Z,3.43
2018-06-19T16:22:09.093Z,3.43
2018-06-19T16:24:39.154Z,3.70
2018-06-19T16:27:07.800Z,3.43
2018-06-19T16:29:36.532Z,3.50
2018-06-19T16:32:21.571Z,3.47
2018-06-19T16:34:50.412Z,3.20
2018-06-19T16:37:19.001Z,3.70
2018-06-19T16:39:47.601Z,3.90
2018-06-19T16:42:16.202Z,3.70
2018-06-19T16:44:44.765Z,3.87
2018-06-19T16:47:13.381Z,4.17
2018-06-19T16:49:41.969Z,4.17
2018-06-19T16:52:10.216Z,3.70
2018-06-19T16:54:38.833Z,4.30
2018-06-19T16:57:07.553Z,3.73
2018-06-19T16:59:36.173Z,4.07
2018-06-19T17:02:04.839Z,3.90
2018-06-19T17:04:33.492Z,3.97
2018-06-19T17:07:02.098Z,4.10
2018-06-19T17:09:30.665Z,3.67
2018-06-19T17:12:00.251Z,4.03
2018-06-19T17:14:28.838Z,3.80
2018-06-19T17:16:57.464Z,3.40
2018-06-19T17:19:26.610Z,3.47
2018-06-19T17:21:55.193Z,3.50
2018-06-19T17:24:23.777Z,3.63
2018-06-19T17:26:53.122Z,3.63
2018-06-19T17:29:21.699Z,3.70
2018-06-19T17:31:51.318Z,3.80
2018-06-19T17:34:20.119Z,3.53
2018-06-19T17:36:48.696Z,3.67
2018-06-19T17:39:17.307Z,3.87
2018-06-19T17:41:45.918Z,3.90
2018-06-19T17:44:14.497Z,3.60
2018-06-19T17:46:45.106Z,4.03
2018-06-19T17:49:13.685Z,3.70
2018-06-19T17:51:42.250Z,3.60
2018-06-19T17:54:10.897Z,3.83
2018-06-19T17:56:39.230Z,3.60
2018-06-19T17:59:08.446Z,3.40
2018-06-19T18:01:37.074Z,3.40
2018-06-19T18:04:05.822Z,3.30
2018-06-19T18:06:34.381Z,3.57
2018-06-19T18:09:03.078Z,3.60
2018-06-19T18:11:31.676Z,3.07
2018-06-19T18:13:59.914Z,3.73
2018-06-19T18:16:28.545Z,3.33
2018-06-19T18:18:57.141Z,3.37
2018-06-19T18:21:25.780Z,3.50
2018-06-19T18:23:54.492Z,3.60
2018-06-19T18:26:24.582Z,3.50
2018-06-19T18:28:53.229Z,3.33
2018-06-19T18:31:21.866Z,3.30
2018-06-19T18:33:50.453Z,3.73
2018-06-19T18:36:19.047Z,3.27
2018-06-19T18:38:47.678Z,3.30
2018-06-19T18:41:18.291Z,3.20
2018-06-19T18:43:46.871Z,3.50
2018-06-19T18:46:17.134Z,3.57
2018-06-19T18:48:45.766Z,3.50
2018-06-19T18:51:14.400Z,3.20
2018-06-19T18:53:42.981Z,3.37
2018-06-19T18:56:12.958Z,3.37
2018-06-19T18:58:41.546Z,3.30
2018-06-19T19:01:10.136Z,3.10
2018-06-19T19:03:38.745Z,3.40
2018-06-19T19:06:07.439Z,3.10
2018-06-19T19:08:36.026Z,3.20
2018-06-19T19:11:04.852Z,3.20
2018-06-19T19:13:33.562Z,3.33
2018-06-19T19:16:09.183Z,3.20
2018-06-19T19:18:43.005Z,3.23
2018-06-19T19:21:11.617Z,3.57
2018-06-19T19:23:40.293Z,3.30
2018-06-19T19:26:08.952Z,3.80
2018-06-19T19:28:42.949Z,3.77
2018-06-19T19:31:11.522Z,4.00
2018-06-19T19:33:40.240Z,3.73
2018-06-19T19:36:13.117Z,3.10
2018-06-19T19:38:47.203Z,3.40
2018-06-19T19:41:15.852Z,3.83
2018-06-19T19:43:44.425Z,3.20
2018-06-19T19:47:18.142Z,3.50
2018-06-19T19:49:46.741Z,3.27
2018-06-19T19:52:15.956Z,3.37
2018-06-19T19:54:44.601Z,3.10
2018-06-19T19:57:18.549Z,3.47
2018-06-19T19:59:47.150Z,3.70
2018-06-19T20:02:15.740Z,3.50
2018-06-19T20:04:45.753Z,3.40
2018-06-19T20:07:14.385Z,3.00
2018-06-19T20:09:42.990Z,3.33
2018-06-19T20:12:11.587Z,3.70
2018-06-19T20:14:40.247Z,3.67
2018-06-19T20:17:08.887Z,3.73
2018-06-19T20:19:39.814Z,3.33
2018-06-19T20:22:08.733Z,3.53
2018-06-19T20:24:37.321Z,3.40
2018-06-19T20:27:06.003Z,3.07
2018-06-19T20:29:34.600Z,3.30
2018-06-19T20:37:44.428Z,3.10
2018-06-19T20:40:13.128Z,3.57
2018-06-19T20:42:41.738Z,3.30
2018-06-19T20:45:10.401Z,3.37
2018-06-19T20:47:39.032Z,3.13
2018-06-19T20:50:07.773Z,3.30
2018-06-19T20:52:38.526Z,3.17
2018-06-19T20:55:07.283Z,3.33
2018-06-19T20:57:35.909Z,3.53
2018-06-19T21:00:06.368Z,3.43
2018-06-19T21:02:35.237Z,3.10
2018-06-19T21:05:03.934Z,3.33
2018-06-19T21:07:32.597Z,3.47
2018-06-19T21:10:01.165Z,3.20
2018-06-19T21:12:29.799Z,2.80
2018-06-19T21:14:58.414Z,3.47
2018-06-19T21:17:27.040Z,3.50
2018-06-19T21:19:55.681Z,3.73
2018-06-19T21:22:24.304Z,4.23
2018-06-19T21:24:52.925Z,4.30
2018-06-19T21:27:21.530Z,3.93
2018-06-19T21:29:50.228Z,4.33
2018-06-19T21:32:18.842Z,3.93
2018-06-19T21:34:47.525Z,4.00
2018-06-19T21:37:16.119Z,3.50
2018-06-19T21:39:45.503Z,3.57
2018-06-19T21:42:14.145Z,3.50
2018-06-19T21:44:42.737Z,3.20
2018-06-19T21:47:11.395Z,3.60
2018-06-19T21:49:40.079Z,4.10
2018-06-19T21:52:09.185Z,3.87
2018-06-19T21:54:37.882Z,3.83
2018-06-19T21:57:07.077Z,3.90
2018-06-19T21:59:35.683Z,3.93
2018-06-19T22:02:04.310Z,3.70
2018-06-19T22:04:32.937Z,3.57
2018-06-19T22:07:01.671Z,3.63
2018-06-19T22:09:30.293Z,3.20
2018-06-19T22:11:59.462Z,3.30
2018-06-19T22:14:28.085Z,3.63
2018-06-19T22:16:56.790Z,3.47
2018-06-19T22:19:25.388Z,3.80
2018-06-19T22:21:54.032Z,3.60
2018-06-19T22:24:22.666Z,3.30
2018-06-19T22:26:51.282Z,3.80
2018-06-19T22:29:19.861Z,3.50
2018-06-19T22:31:50.378Z,3.50
2018-06-19T22:34:19.586Z,3.60
2018-06-19T22:36:48.210Z,4.03
2018-06-19T22:39:16.906Z,3.67
2018-06-19T22:41:45.485Z,3.50
2018-06-19T22:44:14.060Z,3.83
2018-06-19T22:46:42.698Z,3.30
2018-06-19T22:49:11.317Z,3.77
2018-06-19T22:51:39.950Z,3.60
2018-06-19T22:54:08.645Z,3.50
2018-06-19T22:56:37.370Z,3.60
2018-06-19T22:59:08.138Z,3.50
2018-06-19T23:01:37.008Z,3.43
2018-06-19T23:04:05.737Z,3.53
2018-06-19T23:06:34.350Z,3.50
2018-06-19T23:09:03.053Z,3.90
2018-06-19T23:11:31.658Z,3.70
2018-06-19T23:14:02.093Z,3.87
2018-06-19T23:16:30.758Z,3.63
2018-06-19T23:18:59.365Z,3.47
2018-06-19T23:21:39.458Z,3.90
2018-06-19T23:24:08.092Z,3.43
2018-06-19T23:26:36.760Z,3.73
2018-06-19T23:29:05.519Z,3.80
2018-06-19T23:31:35.429Z,3.60
2018-06-19T23:34:04.038Z,3.80
2018-06-19T23:36:32.671Z,3.93
2018-06-19T23:39:01.290Z,3.80
2018-06-19T23:41:29.889Z,3.97
2018-06-19T23:43:59.808Z,4.10
2018-06-19T23:46:28.365Z,3.53
2018-06-19T23:48:56.983Z,3.20
2018-06-19T23:51:25.593Z,3.50
2018-06-19T23:53:54.237Z,3.83
2018-06-19T23:56:22.867Z,3.63
2018-06-19T23:58:51.500Z,3.87
